Time;durP1;ratioP1;P1;durP2;ratioP2;P2;SDS_P1;SDS_P2;PMS_P1;PMS_P2;Temp;Humidity;BMP_temperature;BMP_pressure;BME280_temperature;BME280_humidity;BME280_pressure;Samples;Min_cycle;Max_cycle;Signal;HPM_P1;HPM_P2
2022/08/02 00:00:33;;;;;;;2.53;1.90;;;;;;;17.98;50.02;101820.88;5040329;27;122498;-76
2022/08/02 00:03:01;;;;;;;3.08;2.17;;;;;;;17.96;49.99;101820.09;5041415;27;123729;-76
2022/08/02 00:05:28;;;;;;;3.08;2.08;;;;;;;17.94;50.08;101817.50;5033370;27;113785;-77
2022/08/02 00:07:55;;;;;;;3.67;2.20;;;;;;;17.95;50.04;101821.94;5043703;27;113774;-76
2022/08/02 00:10:22;;;;;;;2.70;1.85;;;;;;;17.96;50.14;101822.78;5065871;27;123970;-77
2022/08/02 00:12:49;;;;;;;3.72;2.10;;;;;;;17.93;50.28;101818.44;5065924;27;123627;-76
2022/08/02 00:15:19;;;;;;;3.65;2.15;;;;;;;17.93;50.39;101818.44;5051381;27;113164;-77
2022/08/02 00:17:47;;;;;;;4.10;2.42;;;;;;;17.93;50.36;101820.28;5063367;27;112485;-77
2022/08/02 00:20:14;;;;;;;4.45;1.90;;;;;;;17.93;50.56;101823.81;5063594;27;123731;-76
2022/08/02 00:22:42;;;;;;;2.90;2.10;;;;;;;17.93;50.63;101818.44;5060404;27;123874;-76
2022/08/02 00:25:09;;;;;;;3.03;2.00;;;;;;;17.92;50.84;101822.09;5042799;27;114817;-77
2022/08/02 00:27:36;;;;;;;5.50;2.30;;;;;;;17.93;50.76;101828.31;5044657;27;114360;-76
2022/08/02 00:30:04;;;;;;;5.68;2.15;;;;;;;17.92;50.77;101827.47;5065730;27;124718;-76
2022/08/02 00:32:31;;;;;;;3.95;2.00;;;;;;;17.93;51.10;101823.81;5062742;27;124010;-76
2022/08/02 00:34:58;;;;;;;5.90;2.15;;;;;;;17.92;51.01;101827.47;5068550;27;114386;-76
2022/08/02 00:37:25;;;;;;;3.60;2.10;;;;;;;17.90;51.08;101819.50;5049705;27;112384;-77
2022/08/02 00:39:56;;;;;;;4.10;2.20;;;;;;;17.89;51.10;101823.16;5049387;27;124381;-76
2022/08/02 00:42:23;;;;;;;3.65;1.98;;;;;;;17.88;51.19;101818.75;5066238;27;123961;-76
2022/08/02 00:44:50;;;;;;;4.28;2.40;;;;;;;17.88;51.56;101820.56;5041968;27;114079;-77
2022/08/02 00:47:17;;;;;;;3.20;2.40;;;;;;;17.89;51.31;101824.94;5063616;27;114056;-77
2022/08/02 00:49:46;;;;;;;3.58;2.40;;;;;;;17.91;51.04;101820.38;5058671;27;123819;-77
2022/08/02 00:52:13;;;;;;;5.95;2.55;;;;;;;17.92;51.49;101827.47;5048869;27;122017;-76
2022/08/02 00:54:41;;;;;;;5.60;2.58;;;;;;;17.96;51.32;101818.28;5063306;27;114295;-76
2022/08/02 00:57:08;;;;;;;5.32;2.70;;;;;;;17.98;51.33;101811.00;5062198;27;113810;-76
2022/08/02 00:59:35;;;;;;;4.05;2.80;;;;;;;17.98;51.30;101811.00;5046867;27;123440;-76
2022/08/02 01:02:03;;;;;;;3.95;2.58;;;;;;;18.00;51.49;101808.22;5057045;27;123860;-76
2022/08/02 01:04:30;;;;;;;3.13;2.30;;;;;;;18.01;51.24;101805.47;5046204;27;113193;-76
2022/08/02 01:07:00;;;;;;;4.55;2.75;;;;;;;18.00;51.33;101809.09;5049890;27;113368;-77
2022/08/02 01:09:27;;;;;;;3.13;2.10;;;;;;;18.02;51.25;101806.31;5037631;27;123055;-76
2022/08/02 01:11:54;;;;;;;5.00;2.58;;;;;;;18.01;51.07;101800.09;5063749;27;124240;-76
2022/08/02 01:14:24;;;;;;;4.07;2.47;;;;;;;18.01;51.17;101797.41;5041980;27;114808;-76
2022/08/02 01:17:05;;;;;;;2.80;2.17;;;;;;;17.98;51.39;101797.59;5061429;27;114777;-76
2022/08/02 01:19:44;;;;;;;5.28;2.15;;;;;;;17.95;51.07;101794.25;5065321;27;123966;-76
2022/08/02 01:22:36;;;;;;;5.50;2.55;;;;;;;17.90;51.30;101794.53;5042176;27;124019;-76
2022/08/02 01:25:51;;;;;;;3.85;2.60;;;;;;;17.86;51.24;101795.69;5042163;27;113691;-76
2022/08/02 01:28:21;;;;;;;5.35;2.85;;;;;;;17.82;51.13;101794.09;5062806;27;113838;-76
2022/08/02 01:30:52;;;;;;;7.53;2.60;;;;;;;17.81;51.20;101797.72;5060621;27;124016;-76
2022/08/02 01:33:20;;;;;;;3.55;2.22;;;;;;;17.79;51.22;101789.78;5044717;27;123172;-76
2022/08/02 01:35:55;;;;;;;5.78;2.53;;;;;;;17.77;51.27;101790.84;5042952;27;114019;-76
2022/08/02 01:38:26;;;;;;;;;;;;;;;17.73;50.74;101783.94;5065864;27;113824;-76
2022/08/02 01:40:55;;;;;;;3.90;2.30;;;;;;;17.73;50.95;101789.31;5045915;27;124040;-77
2022/08/02 01:43:25;;;;;;;5.30;2.30;;;;;;;17.71;51.09;101781.34;5064461;27;123670;-76
2022/08/02 01:45:54;;;;;;;4.07;2.60;;;;;;;17.67;51.12;101780.66;5063149;27;114488;-76
2022/08/02 01:48:23;;;;;;;3.83;2.50;;;;;;;17.65;51.24;101771.88;5043248;27;113687;-76
2022/08/02 01:50:51;;;;;;;4.20;2.53;;;;;;;17.64;51.35;101778.16;5059994;27;124786;-76
2022/08/02 01:53:20;;;;;;;3.53;2.25;;;;;;;17.63;51.26;101779.13;5031748;27;123173;-76
2022/08/02 01:55:50;;;;;;;5.18;2.45;;;;;;;17.63;51.46;101779.13;5061977;27;114036;-76
2022/08/02 01:58:32;;;;;;;3.50;2.20;;;;;;;17.63;51.53;101773.78;5048373;27;113047;-76
2022/08/02 02:01:00;;;;;;;4.22;2.47;;;;;;;17.64;51.42;101770.13;5034968;27;123468;-76
2022/08/02 02:03:30;;;;;;;4.10;2.33;;;;;;;17.64;51.46;101770.13;5044389;27;124766;-76
2022/08/02 02:06:01;;;;;;;3.67;2.58;;;;;;;17.65;51.37;101769.19;5060139;27;114937;-77
2022/08/02 02:08:35;;;;;;;6.72;2.58;;;;;;;17.66;51.50;101770.91;5033465;27;114278;-76
2022/08/02 02:11:03;;;;;;;5.28;2.70;;;;;;;17.64;51.22;101770.13;5043863;27;124608;-77
2022/08/02 02:13:51;;;;;;;3.95;2.63;;;;;;;17.63;51.54;101760.38;5049191;27;122843;-76
2022/08/02 02:16:21;;;;;;;3.70;2.42;;;;;;;17.64;51.39;101758.56;5037950;27;113960;-76
2022/08/02 02:18:50;;;;;;;3.30;2.50;;;;;;;17.62;51.31;101755.97;5061888;27;113030;-77
2022/08/02 02:21:17;;;;;;;3.35;2.55;;;;;;;17.59;51.35;101748.09;5050100;27;124718;-77
2022/08/02 02:23:44;;;;;;;5.57;2.55;;;;;;;17.56;51.50;101745.63;5059862;27;123558;-77
2022/08/02 02:26:15;;;;;;;4.93;2.53;;;;;;;17.52;51.48;101749.44;5062660;27;114038;-76
2022/08/02 02:28:46;;;;;;;3.97;2.25;;;;;;;17.48;51.47;101747.91;5039999;27;113789;-77
2022/08/02 02:31:17;;;;;;;5.13;2.40;;;;;;;17.44;51.66;101746.34;5043833;27;123775;-77
2022/08/02 02:33:51;;;;;;;4.35;2.30;;;;;;;17.43;51.77;101744.63;5051440;27;123890;-76
2022/08/02 02:36:21;;;;;;;4.20;2.42;;;;;;;17.41;51.85;101747.41;5046422;27;114281;-77
2022/08/02 02:38:50;;;;;;;5.95;2.67;;;;;;;17.41;51.90;101741.19;5035895;27;113668;-76
2022/08/02 02:41:19;;;;;;;3.33;2.40;;;;;;;17.41;51.99;101738.53;5042359;27;124101;-77
2022/08/02 02:43:49;;;;;;;4.45;2.50;;;;;;;17.42;51.95;101738.44;5022866;27;125516;-76
2022/08/02 02:46:20;;;;;;;7.75;2.72;;;;;;;17.40;51.61;101731.41;5065576;27;114557;-76
2022/08/02 02:48:50;;;;;;;4.07;2.50;;;;;;;17.38;51.99;101736.00;5055282;27;113343;-76
2022/08/02 02:51:21;;;;;;;3.88;2.70;;;;;;;17.36;52.00;101737.91;5042328;27;123628;-76
2022/08/02 02:53:50;;;;;;;4.05;2.33;;;;;;;17.35;52.29;101730.81;5044193;27;123700;-77
2022/08/02 02:56:39;;;;;;;4.82;2.60;;;;;;;17.35;52.27;101745.09;5057416;27;115902;-76
2022/08/02 02:59:07;;;;;;;4.55;2.42;;;;;;;17.35;52.26;101734.38;5022746;27;114900;-76
2022/08/02 03:01:35;;;;;;;4.70;2.50;;;;;;;17.35;52.24;101736.19;5036257;27;123620;-76
2022/08/02 03:04:23;;;;;;;5.38;2.50;;;;;;;17.34;52.33;101724.63;5054333;27;124560;-76
2022/08/02 03:06:51;;;;;;;6.20;2.72;;;;;;;17.35;52.30;101726.34;5059508;27;114243;-77
2022/08/02 03:09:18;;;;;;;5.07;2.80;;;;;;;17.35;52.37;101726.34;5042397;27;113308;-77
2022/08/02 03:11:45;;;;;;;4.93;2.95;;;;;;;17.34;52.35;101723.75;5044985;27;123696;-76
2022/08/02 03:14:13;;;;;;;5.68;2.75;;;;;;;17.32;52.38;101723.84;5026163;27;123738;-76
2022/08/02 03:16:45;;;;;;;6.65;2.95;;;;;;;17.30;52.44;101723.94;5064089;27;114194;-76
2022/08/02 03:19:13;;;;;;;7.43;2.83;;;;;;;17.29;52.63;101722.22;5063113;27;113972;-77
2022/08/02 03:21:44;;;;;;;4.80;2.25;;;;;;;17.29;52.52;101716.88;5044159;27;124009;-77
2022/08/02 03:24:12;;;;;;;6.75;2.65;;;;;;;17.26;52.55;101717.03;5047750;27;122864;-77
2022/08/02 03:26:40;;;;;;;8.13;2.85;;;;;;;17.26;52.61;101713.50;5060554;27;113838;-77
2022/08/02 03:29:08;;;;;;;8.77;2.50;;;;;;;17.24;52.44;101718.94;5048850;27;116069;-76
2022/08/02 03:31:40;;;;;;;3.90;2.60;;;;;;;17.22;52.70;101715.50;5054684;27;124097;-77
2022/08/02 03:34:08;;;;;;;5.75;2.83;;;;;;;17.20;52.71;101712.06;5015455;27;122781;-77
2022/08/02 03:36:35;;;;;;;7.75;2.70;;;;;;;17.20;52.67;101721.91;5041601;27;113920;-76
2022/08/02 03:39:03;;;;;;;7.18;2.92;;;;;;;17.19;52.73;101721.03;5062713;27;113010;-76
2022/08/02 03:41:33;;;;;;;7.30;3.08;;;;;;;17.18;52.69;101723.78;5048956;27;123389;-76
2022/08/02 03:44:01;;;;;;;6.53;2.60;;;;;;;17.16;52.71;101715.88;5049903;27;125020;-76
2022/08/02 03:46:29;;;;;;;5.65;2.50;;;;;;;17.13;52.65;101716.03;5024942;27;112209;-76
2022/08/02 03:48:57;;;;;;;5.60;3.08;;;;;;;17.13;52.91;101718.72;5051683;27;114694;-76
2022/08/02 03:51:25;;;;;;;6.55;2.83;;;;;;;17.11;52.79;101704.56;5049539;27;124083;-76
2022/08/02 03:53:53;;;;;;;4.78;2.88;;;;;;;17.10;53.01;101705.50;5041597;27;123531;-76
2022/08/02 03:56:20;;;;;;;5.55;2.80;;;;;;;17.08;53.16;101702.06;5064553;27;115056;-77
2022/08/02 03:58:49;;;;;;;4.90;3.00;;;;;;;17.06;53.22;101703.97;5057192;27;114875;-77
2022/08/02 04:01:16;;;;;;;6.57;2.78;;;;;;;17.04;53.09;101712.06;5049988;27;123517;-77
2022/08/02 04:03:43;;;;;;;6.80;2.83;;;;;;;17.02;53.40;101713.13;5037138;27;122991;-77
2022/08/02 04:06:10;;;;;;;4.28;2.90;;;;;;;17.01;53.47;101722.09;5060100;27;113842;-77
2022/08/02 04:08:37;;;;;;;7.15;3.25;;;;;;;17.01;53.58;101719.41;5095564;27;114172;-75
2022/08/02 04:13:51;;;;;;;7.55;3.10;;;;;;;17.02;53.87;101708.63;5080053;27;124445;-76
2022/08/02 04:16:33;;;;;;;8.18;2.88;;;;;;;17.03;53.79;101721.06;5054653;27;112965;-76
2022/08/02 04:19:03;;;;;;;10.00;3.35;;;;;;;17.05;54.00;101707.63;5037322;27;114265;-76
2022/08/02 04:21:37;;;;;;;5.95;2.80;;;;;;;17.07;54.05;101705.72;5056889;27;123702;-77
2022/08/02 04:24:26;;;;;;;6.45;2.85;;;;;;;17.11;54.14;101708.09;5040239;27;123248;-76
2022/08/02 04:26:54;;;;;;;;;;;;;;;17.14;53.79;101712.44;5041059;27;114075;-76
2022/08/02 04:29:29;;;;;;;6.70;2.90;;;;;;;17.21;53.87;101719.13;5045913;27;114286;-76
2022/08/02 04:31:56;;;;;;;6.03;3.03;;;;;;;17.25;53.92;101709.97;5053725;27;124210;-77
2022/08/02 04:34:23;;;;;;;6.78;3.28;;;;;;;17.30;54.17;101713.22;5052978;27;124181;-76
2022/08/02 04:36:50;;;;;;;6.55;3.05;;;;;;;17.35;54.17;101714.75;5065530;27;114981;-76
2022/08/02 04:39:18;;;;;;;4.93;3.13;;;;;;;17.38;54.15;101711.91;5039848;27;114436;-77
2022/08/02 04:41:46;;;;;;;6.68;2.92;;;;;;;17.40;54.18;101712.69;5040229;27;123048;-76
2022/08/02 04:44:13;;;;;;;5.85;3.40;;;;;;;17.41;54.23;101725.13;5033267;27;123883;-76
2022/08/02 04:46:42;;;;;;;8.25;3.40;;;;;;;17.43;54.40;101717.84;5041811;27;113332;-76
2022/08/02 04:49:10;;;;;;;5.40;3.17;;;;;;;17.44;53.98;101719.56;5039711;27;113254;-76
2022/08/02 04:51:39;;;;;;;6.13;3.28;;;;;;;17.45;54.34;101726.66;5044119;27;123232;-77
2022/08/02 04:54:08;;;;;;;4.65;3.00;;;;;;;17.48;54.43;101726.50;5053989;27;123987;-76
2022/08/02 04:56:37;;;;;;;9.88;3.70;;;;;;;17.51;54.40;101713.75;5062622;27;114283;-77
2022/08/02 04:59:05;;;;;;;4.32;2.97;;;;;;;17.55;54.31;101722.47;5050054;27;113642;-76
2022/08/02 05:01:34;;;;;;;5.97;3.60;;;;;;;17.58;54.44;101711.56;5046580;27;124200;-77
2022/08/02 05:04:01;;;;;;;7.85;3.33;;;;;;;17.61;54.36;101714.06;5065516;27;124352;-77
2022/08/02 05:06:28;;;;;;;7.00;3.30;;;;;;;17.65;54.42;101707.56;5044941;27;114029;-77
2022/08/02 05:08:56;;;;;;;8.02;3.55;;;;;;;17.70;54.54;101708.13;5049287;27;113822;-76
2022/08/02 05:11:23;;;;;;;7.43;3.35;;;;;;;17.75;54.50;101712.38;5045846;27;123860;-77
2022/08/02 05:14:04;;;;;;;8.90;3.75;;;;;;;17.77;54.52;101705.94;5039441;27;124150;-77
2022/08/02 05:16:31;;;;;;;6.93;3.67;;;;;;;17.82;54.55;101709.22;5025402;27;114492;-76
2022/08/02 05:19:00;;;;;;;7.45;3.90;;;;;;;17.88;54.75;101705.31;5066090;27;114525;-77
2022/08/02 05:21:28;;;;;;;7.07;3.63;;;;;;;17.93;54.66;101705.88;5026752;27;123123;-77
2022/08/02 05:23:55;;;;;;;6.88;3.45;;;;;;;18.02;54.60;101704.44;5038395;27;123743;-77
2022/08/02 05:26:22;;;;;;;11.05;3.72;;;;;;;18.06;54.69;101701.50;5065600;27;114316;-76
2022/08/02 05:28:49;;;;;;;7.95;4.13;;;;;;;18.12;54.66;101696.69;5079404;27;114789;-76
2022/08/02 05:31:16;;;;;;;8.30;3.90;;;;;;;18.17;54.76;101694.59;5078007;27;123137;-76
2022/08/02 05:33:43;;;;;;;6.40;3.63;;;;;;;18.21;54.77;101690.75;5045077;27;121859;-76
2022/08/02 05:36:11;;;;;;;7.97;3.95;;;;;;;18.26;54.49;101685.97;5060135;27;113957;-76
2022/08/02 05:38:38;;;;;;;5.70;3.92;;;;;;;18.29;54.93;101685.78;5051608;27;113073;-76
2022/08/02 05:41:05;;;;;;;6.28;3.95;;;;;;;18.34;54.63;101689.00;5080114;27;124298;-76
2022/08/02 05:43:32;;;;;;;8.45;4.78;;;;;;;18.37;54.83;101690.63;5059887;27;124192;-76
2022/08/02 05:45:59;;;;;;;8.20;4.55;;;;;;;18.41;54.55;101694.84;5069934;27;113354;-77
2022/08/02 05:48:26;;;;;;;9.27;4.85;;;;;;;18.46;54.70;101688.22;5050110;27;114118;-76
2022/08/02 05:51:12;;;;;;;8.27;4.25;;;;;;;18.51;54.77;101689.72;5063074;27;124597;-77
2022/08/02 05:53:51;;;;;;;9.23;4.43;;;;;;;18.57;54.90;101694.69;5035566;27;123094;-77
2022/08/02 05:56:46;;;;;;;10.07;4.75;;;;;;;18.63;54.73;101683.59;5063332;27;114018;-77
2022/08/02 05:59:20;;;;;;;12.90;5.60;;;;;;;18.71;54.86;101686.59;5038118;27;113875;-77
2022/08/02 06:01:54;;;;;;;14.52;6.00;;;;;;;18.79;54.91;101678.06;5036854;27;122966;-76
2022/08/02 06:04:29;;;;;;;11.75;5.70;;;;;;;18.89;54.85;101689.06;5060966;27;124942;-76
2022/08/02 06:07:01;;;;;;;14.23;6.28;;;;;;;19.00;55.11;101686.53;5055752;27;114293;-76
2022/08/02 06:09:29;;;;;;;18.90;6.05;;;;;;;19.09;55.25;101685.91;5079167;27;113852;-75
2022/08/02 06:11:57;;;;;;;10.43;5.70;;;;;;;19.20;55.18;101694.09;5066679;27;125224;-77
2022/08/02 06:14:32;;;;;;;9.27;5.43;;;;;;;19.31;55.31;101695.16;5072027;27;124462;-75
2022/08/02 06:17:03;;;;;;;9.43;5.78;;;;;;;19.42;55.24;101697.97;5087606;27;116321;-75
2022/08/02 06:19:31;;;;;;;9.43;5.50;;;;;;;19.53;55.27;101703.47;5090752;27;113992;-74
2022/08/02 06:22:19;;;;;;;7.50;5.15;;;;;;;19.68;55.26;101698.84;5070693;27;124114;-75
2022/08/02 06:25:03;;;;;;;6.80;5.40;;;;;;;19.82;54.97;101700.63;5070938;27;122221;-76
2022/08/02 06:27:31;;;;;;;9.20;5.43;;;;;;;19.93;55.37;101698.03;5087220;27;114602;-75
2022/08/02 06:29:58;;;;;;;9.02;5.57;;;;;;;20.07;55.59;101693.50;5045594;27;113812;-76
2022/08/02 06:32:27;;;;;;;8.68;5.75;;;;;;;20.20;55.49;101691.66;5061257;27;124583;-76
2022/08/02 06:34:54;;;;;;;10.98;6.28;;;;;;;20.34;55.44;101686.13;5040881;27;126079;-77
2022/08/02 06:37:39;;;;;;;10.15;6.25;;;;;;;20.52;55.55;101683.06;5053301;27;114234;-76
2022/08/02 06:40:26;;;;;;;9.63;6.50;;;;;;;20.70;55.50;101679.03;5014631;27;113474;-76
2022/08/02 06:43:16;;;;;;;12.02;7.05;;;;;;;20.88;55.22;101670.56;5027142;27;124259;-76
2022/08/02 06:45:43;;;;;;;11.45;6.38;;;;;;;21.07;55.05;101668.16;5031216;27;123160;-77
2022/08/02 06:48:11;;;;;;;10.35;6.90;;;;;;;21.24;55.28;101666.03;5037608;27;113843;-76
2022/08/02 06:50:38;;;;;;;10.48;6.65;;;;;;;21.43;55.03;101669.00;5049749;27;113878;-76
2022/08/02 06:53:06;;;;;;;8.73;7.03;;;;;;;21.63;55.07;101669.31;5059255;27;123337;-76
2022/08/02 06:55:33;;;;;;;11.30;7.30;;;;;;;21.81;54.99;101667.84;5054188;27;123956;-76
2022/08/02 06:58:11;;;;;;;10.07;7.43;;;;;;;22.02;54.87;101672.50;5058143;27;114339;-76
2022/08/02 07:00:41;;;;;;;12.63;6.85;;;;;;;22.18;54.50;101670.28;5064341;27;114260;-76
2022/08/02 07:03:08;;;;;;;10.90;6.65;;;;;;;22.35;54.59;101667.09;5031105;27;123898;-77
2022/08/02 07:05:35;;;;;;;10.00;7.18;;;;;;;22.53;54.35;101664.72;5062754;27;124230;-76
2022/08/02 07:08:03;;;;;;;12.98;6.85;;;;;;;22.74;54.39;101667.47;5025912;27;115018;-76
2022/08/02 07:10:30;;;;;;;9.77;6.93;;;;;;;22.96;54.26;101673.78;5041264;27;113692;-74
2022/08/02 07:12:59;;;;;;;9.82;6.72;;;;;;;23.20;54.13;101670.00;5030379;27;123981;-74
2022/08/02 07:15:26;;;;;;;8.55;5.90;;;;;;;23.40;53.75;101669.16;5032611;27;122644;-73
2022/08/02 07:17:53;;;;;;;7.63;6.30;;;;;;;23.63;53.46;101663.59;5052602;27;114110;-75
2022/08/02 07:20:20;;;;;;;8.88;6.47;;;;;;;23.81;53.15;101667.44;5052309;27;114255;-74
2022/08/02 07:22:48;;;;;;;9.05;7.10;;;;;;;24.02;52.78;101674.63;5029413;27;123534;-74
2022/08/02 07:25:15;;;;;;;8.52;6.72;;;;;;;24.21;52.36;101669.28;5051770;27;123750;-74
2022/08/02 07:27:42;;;;;;;8.98;6.40;;;;;;;24.39;52.55;101672.19;5043988;27;114205;-75
2022/08/02 07:30:10;;;;;;;9.48;5.93;;;;;;;24.62;52.05;101672.81;5040055;27;114014;-74
2022/08/02 07:32:37;;;;;;;8.85;6.82;;;;;;;24.84;51.76;101665.41;5069192;27;124745;-75
2022/08/02 07:35:05;;;;;;;8.57;6.43;;;;;;;25.03;51.43;101670.84;5044472;27;123286;-73
2022/08/02 07:37:37;;;;;;;8.63;6.30;;;;;;;25.20;51.13;101665.66;5041671;27;114070;-74
2022/08/02 07:40:25;;;;;;;8.40;6.00;;;;;;;25.36;50.50;101663.25;5036735;27;114123;-75
2022/08/02 07:42:53;;;;;;;10.23;6.20;;;;;;;25.48;50.07;101663.06;5051889;27;123913;-75
2022/08/02 07:45:29;;;;;;;9.15;6.57;;;;;;;25.58;50.01;101663.88;5047496;27;123565;-73
2022/08/02 07:47:56;;;;;;;8.07;6.47;;;;;;;25.68;49.88;101659.31;5064288;27;114365;-73
2022/08/02 07:50:23;;;;;;;8.73;6.65;;;;;;;25.79;49.86;101650.97;5065241;27;114661;-73
2022/08/02 07:52:50;;;;;;;10.52;6.07;;;;;;;25.93;49.37;101651.53;5068383;27;124623;-73
2022/08/02 07:55:24;;;;;;;7.50;5.95;;;;;;;26.08;49.53;101655.44;5030102;27;122781;-73
2022/08/02 07:58:10;;;;;;;7.45;6.43;;;;;;;26.26;49.12;101646.47;5066918;27;115072;-73
2022/08/02 08:00:42;;;;;;;7.55;6.38;;;;;;;26.38;48.62;101650.69;5067773;27;114922;-73
2022/08/02 08:03:10;;;;;;;7.32;6.20;;;;;;;26.48;48.23;101651.47;5028733;27;124454;-73
2022/08/02 08:05:37;;;;;;;9.15;6.60;;;;;;;26.58;48.04;101646.84;5066104;27;123831;-74
2022/08/02 08:08:04;;;;;;;6.82;5.20;;;;;;;26.66;47.86;101647.97;5053446;27;114741;-74
2022/08/02 08:10:32;;;;;;;9.15;5.57;;;;;;;26.75;47.72;101647.03;5052698;27;113440;-72
2022/08/02 08:12:59;;;;;;;6.72;4.78;;;;;;;26.89;47.70;101648.34;5066524;27;123957;-75
2022/08/02 08:15:26;;;;;;;7.28;4.68;;;;;;;27.06;47.31;101646.59;5036931;27;122687;-74
2022/08/02 08:17:53;;;;;;;5.88;4.90;;;;;;;27.19;46.83;101638.88;5066405;27;113422;-75
2022/08/02 08:20:20;;;;;;;6.30;4.63;;;;;;;27.26;46.84;101639.16;5034029;27;113246;-75
2022/08/02 08:22:48;;;;;;;6.25;3.95;;;;;;;27.32;46.77;101644.78;5064734;27;123794;-75
2022/08/02 08:25:16;;;;;;;4.72;3.72;;;;;;;27.43;46.04;101640.97;5069092;27;123742;-75
2022/08/02 08:27:51;;;;;;;6.10;4.25;;;;;;;27.51;45.95;101638.28;5034241;27;114049;-75
2022/08/02 08:30:21;;;;;;;4.50;3.00;;;;;;;27.62;45.81;101633.59;5051870;27;113864;-75
2022/08/02 08:32:48;;;;;;;5.90;3.22;;;;;;;27.72;45.63;101640.59;5034175;27;123219;-76
2022/08/02 08:35:15;;;;;;;4.78;2.92;;;;;;;27.85;45.18;101640.16;5068349;27;124141;-75
2022/08/02 08:37:42;;;;;;;4.55;2.90;;;;;;;27.97;44.99;101632.56;5048023;27;113717;-76
2022/08/02 08:40:10;;;;;;;3.30;2.45;;;;;;;28.06;44.48;101631.59;5068493;27;113752;-75
2022/08/02 08:42:38;;;;;;;4.68;2.55;;;;;;;28.12;44.35;101630.94;5050244;27;124210;-76
2022/08/02 08:45:06;;;;;;;4.97;2.70;;;;;;;28.19;44.03;101635.72;5044575;27;121718;-75
2022/08/02 08:47:36;;;;;;;4.20;2.60;;;;;;;28.22;43.60;101632.66;5069933;27;114999;-76
2022/08/02 08:50:07;;;;;;;5.63;2.67;;;;;;;28.23;43.33;101627.03;5065166;27;114859;-75
2022/08/02 08:52:46;;;;;;;5.28;2.55;;;;;;;28.27;43.13;101633.00;5049917;27;123461;-75
2022/08/02 08:55:14;;;;;;;3.47;2.30;;;;;;;28.31;43.24;101628.94;5045289;27;123637;-74
2022/08/02 08:57:42;;;;;;;4.38;2.50;;;;;;;28.35;43.05;101631.16;5048310;27;114362;-74
2022/08/02 09:00:15;;;;;;;3.17;2.40;;;;;;;28.40;43.20;101633.38;5067519;27;114299;-74
2022/08/02 09:02:43;;;;;;;3.40;2.20;;;;;;;28.49;42.96;101632.38;5064783;27;123886;-74
2022/08/02 09:05:13;;;;;;;2.92;2.33;;;;;;;28.57;43.36;101633.44;5067402;27;123811;-74
2022/08/02 09:07:43;;;;;;;3.97;2.50;;;;;;;28.63;43.20;101638.22;5068689;27;114507;-74
2022/08/02 09:10:39;;;;;;;3.38;2.22;;;;;;;28.70;42.96;101633.81;5051793;27;115087;-75
2022/08/02 09:13:19;;;;;;;3.38;2.38;;;;;;;28.72;43.01;101632.59;5029324;27;123550;-75
2022/08/02 09:16:06;;;;;;;3.92;2.33;;;;;;;28.78;42.73;101631.06;5057111;27;124394;-75
2022/08/02 09:18:44;;;;;;;4.55;2.00;;;;;;;28.84;42.53;101633.13;5031854;27;113833;-76
2022/08/02 09:21:14;;;;;;;4.85;2.70;;;;;;;28.90;42.78;101629.72;5015844;27;112965;-75
2022/08/02 09:23:47;;;;;;;3.65;2.58;;;;;;;28.93;42.68;101634.84;5023365;27;124482;-75
2022/08/02 09:26:17;;;;;;;3.92;2.35;;;;;;;28.97;42.46;101639.94;5049127;27;123838;-75
2022/08/02 09:28:47;;;;;;;3.63;2.20;;;;;;;29.00;42.44;101634.16;5032014;27;113480;-75
2022/08/02 09:31:22;;;;;;;3.65;2.22;;;;;;;29.04;42.77;101630.91;5037600;27;114597;-76
2022/08/02 09:33:58;;;;;;;3.78;2.35;;;;;;;29.10;42.84;101635.69;5039514;27;123731;-76
2022/08/02 09:36:27;;;;;;;3.20;2.40;;;;;;;29.20;42.91;101631.97;5029317;27;123269;-75
2022/08/02 09:39:03;;;;;;;3.72;2.20;;;;;;;29.27;42.51;101635.69;5058840;27;115341;-76
2022/08/02 09:41:32;;;;;;;4.20;2.17;;;;;;;29.34;42.25;101638.56;5027739;27;114655;-75
2022/08/02 09:44:02;;;;;;;3.90;2.42;;;;;;;29.36;42.09;101628.34;5055639;27;123878;-76
2022/08/02 09:46:36;;;;;;;3.85;2.40;;;;;;;29.39;41.83;101634.31;5031870;27;123554;-75
2022/08/02 09:49:15;;;;;;;3.53;2.20;;;;;;;29.41;41.59;101621.34;5032525;27;113957;-76
2022/08/02 09:51:45;;;;;;;4.85;2.22;;;;;;;29.42;41.64;101622.16;5046590;27;114096;-75
2022/08/02 09:54:24;;;;;;;3.60;2.17;;;;;;;29.45;41.56;101625.41;5049532;27;124007;-75
2022/08/02 09:56:55;;;;;;;2.40;2.20;;;;;;;29.52;41.89;101622.84;5047454;27;123832;-75
2022/08/02 09:59:23;;;;;;;2.47;1.70;;;;;;;29.63;41.90;101622.47;5032996;27;114053;-76
2022/08/02 10:01:52;;;;;;;2.83;1.92;;;;;;;29.74;41.62;101626.69;5061241;27;114065;-76
2022/08/02 10:04:39;;;;;;;3.58;1.98;;;;;;;29.85;41.11;101622.75;5033777;27;123554;-75
2022/08/02 10:07:21;;;;;;;2.88;2.25;;;;;;;29.87;40.90;101620.69;5049100;27;124688;-75
2022/08/02 10:09:50;;;;;;;3.17;2.42;;;;;;;29.89;40.89;101615.91;5051103;27;114353;-76
2022/08/02 10:12:19;;;;;;;3.38;2.40;;;;;;;29.91;40.49;101627.50;5045268;27;112131;-76
2022/08/02 10:14:49;;;;;;;2.45;2.00;;;;;;;29.91;40.79;101622.03;5048635;27;123093;-75
2022/08/02 10:17:18;;;;;;;3.47;1.80;;;;;;;29.94;40.78;101621.69;5051060;27;125205;-75
2022/08/02 10:19:47;;;;;;;4.20;2.03;;;;;;;30.02;40.74;101618.91;5062666;27;114671;-75
2022/08/02 10:22:32;;;;;;;2.85;2.05;;;;;;;30.14;40.58;101613.03;5039029;27;113373;-75
2022/08/02 10:25:02;;;;;;;4.07;1.80;;;;;;;30.20;40.02;101617.81;5027862;27;123725;-74
2022/08/02 10:27:30;;;;;;;3.25;1.92;;;;;;;30.26;39.96;101614.34;5038629;27;123798;-75
2022/08/02 10:30:15;;;;;;;5.63;2.00;;;;;;;30.31;39.46;101611.94;5053223;27;115417;-75
2022/08/02 10:32:45;;;;;;;4.18;1.70;;;;;;;30.35;39.69;101613.28;5035716;27;112780;-75
2022/08/02 10:35:16;;;;;;;2.20;1.58;;;;;;;30.43;39.48;101615.97;5040777;27;122317;-75
2022/08/02 10:38:00;;;;;;;3.22;2.03;;;;;;;30.55;39.05;101610.91;5029585;27;124388;-75
2022/08/02 10:40:44;;;;;;;2.80;1.73;;;;;;;30.66;38.98;101612.38;5034122;27;114409;-75
2022/08/02 10:43:13;;;;;;;2.33;1.50;;;;;;;30.72;37.98;101603.44;5053737;27;113639;-75
2022/08/02 10:45:40;;;;;;;2.53;1.60;;;;;;;30.75;37.74;101603.06;5030407;27;122988;-74
2022/08/02 10:48:10;;;;;;;3.72;1.73;;;;;;;30.76;37.56;101607.53;5052128;27;124483;-75
2022/08/02 10:50:51;;;;;;;2.10;1.50;;;;;;;30.80;37.68;101603.38;5040946;27;114672;-74
2022/08/02 10:53:26;;;;;;;3.45;1.40;;;;;;;30.84;36.69;101607.44;5045146;27;114399;-75
2022/08/02 10:55:56;;;;;;;2.00;1.33;;;;;;;30.85;36.05;101614.63;5042635;27;124464;-74
2022/08/02 10:58:30;;;;;;;3.35;1.40;;;;;;;30.91;35.81;101613.06;5030605;27;124463;-74
2022/08/02 11:01:03;;;;;;;2.53;1.40;;;;;;;30.95;35.60;101608.94;5038472;27;113504;-74
2022/08/02 11:03:31;;;;;;;1.42;1.10;;;;;;;30.99;35.15;101595.72;5020903;27;113782;-73
2022/08/02 11:06:08;;;;;;;4.18;1.60;;;;;;;31.04;34.62;101601.47;5045157;27;124071;-74
2022/08/02 11:09:31;;;;;;;2.42;1.35;;;;;;;31.06;34.77;101599.41;5036228;27;123740;-74
2022/08/02 11:12:01;;;;;;;1.58;1.02;;;;;;;31.11;34.83;101602.44;5020366;27;112997;-74
2022/08/02 11:14:29;;;;;;;2.90;1.30;;;;;;;31.16;34.51;101604.63;5043467;27;115447;-74
2022/08/02 11:16:56;;;;;;;2.22;1.10;;;;;;;31.21;34.00;101592.06;5037294;27;123876;-76
2022/08/02 11:19:25;;;;;;;1.80;1.00;;;;;;;31.26;33.42;101594.25;5047363;27;124222;-75
2022/08/02 11:22:03;;;;;;;1.80;1.00;;;;;;;31.30;33.47;101594.72;5015424;27;113809;-76
2022/08/02 11:24:35;;;;;;;3.78;1.27;;;;;;;31.34;33.41;101602.34;5030583;27;115399;-76
2022/08/02 11:27:04;;;;;;;2.55;1.00;;;;;;;31.38;32.85;101586.41;5049834;27;122999;-75
2022/08/02 11:29:36;;;;;;;1.65;1.20;;;;;;;31.41;32.51;101580.56;5049903;27;123641;-75
2022/08/02 11:32:17;;;;;;;2.88;1.10;;;;;;;31.45;32.69;101581.88;5015949;27;113610;-76
2022/08/02 11:34:50;;;;;;;1.52;1.00;;;;;;;31.53;32.56;101590.03;5060937;27;113220;-76
2022/08/02 11:37:29;;;;;;;2.00;1.42;;;;;;;31.59;32.39;101591.16;5027755;27;123966;-76